LIRA/CIA METAR and TAF weather

Enter ICAO airport designator
Station Type Date Time Source
LIRA METAR 2020/04/01 20:50 UTC NOAA

LIRA 012050Z 06005KT CAVOK 06/M05 Q1015


Station Type Date Time Source
LIRA Decoded METAR 2020/04/01 20:50 UTC NOAA

Roma / Ciampino, Italy (LIRA) 41-47N 012-35E 105M
Apr 01, 2020 - 04:50 PM EDT / 2020.04.01 2050 UTC
Wind: from the ENE (060 degrees) at 6 MPH (5 KT):0
Visibility: greater than 7 mile(s):0
Temperature: 42 F (6 C)
Dew Point: 23 F (-5 C)
Relative Humidity: 45%
Pressure (altimeter): 29.97 in. Hg (1015 hPa)
ob: LIRA 012050Z 06005KT CAVOK 06/M05 Q1015
cycle: 21

Station Type Date Time Source
LIRA TAF 2020/04/01 18:26 UTC NOAA

TAF LIRA 011700Z 0118/0218 02010KT CAVOK
BECMG 0118/0120 VRB05KT
BECMG 0210/0212 21010KT

Example: see airport list